Time;durP1;ratioP1;P1;durP2;ratioP2;P2;SDS_P1;SDS_P2;PMS_P1;PMS_P2;Temp;Humidity;BMP_temperature;BMP_pressure;BME280_temperature;BME280_humidity;BME280_pressure;Samples;Min_cycle;Max_cycle;Signal;HPM_P1;HPM_P2
2022/01/25 00:29:03;;;;;;;;;;;;;;;-1.05;76.31;97924.94;5080122;28;19953;-74
2022/01/25 00:31:16;;;;;;;;;;;;;;;-1.08;76.53;97923.41;5093209;28;20416;-74
2022/01/25 00:33:52;;;;;;;;;;;;;;;-1.08;76.42;97920.03;5093979;28;19967;-73
2022/01/25 00:36:20;;;;;;;;;;;;;;;-1.08;76.93;97915.69;5076362;28;19951;-73
2022/01/25 00:38:46;;;;;;;;;;;;;;;-1.07;77.00;97913.91;5075884;28;20448;-73
2022/01/25 00:41:12;;;;;;;;;;;;;;;-1.08;77.16;97910.53;5093794;28;19958;-73
2022/01/25 00:43:38;;;;;;;;;;;;;;;-1.08;77.21;97910.53;5093995;28;19959;-76
2022/01/25 00:46:08;;;;;;;;;;;;;;;-1.09;76.89;97906.34;5093975;28;19963;-73
2022/01/25 00:53:57;;;;;;;;;;;;;;;-1.12;77.01;97898.81;5092603;28;19961;-73
2022/01/25 00:56:24;;;;;;;;;;;;;;;-1.11;77.36;97897.06;5093551;28;20367;-73
2022/01/25 00:58:50;;;;;;;;;;;;;;;-1.12;77.47;97898.81;5092958;28;19980;-73
2022/01/25 01:01:16;;;;;;;;;;;;;;;-1.10;77.81;97898.72;5075506;28;20402;-73
2022/01/25 01:03:42;;;;;;;;;;;;;;;-1.10;78.12;97903.84;5093482;28;19957;-73
2022/01/25 01:06:08;;;;;;;;;;;;;;;-1.09;78.23;97902.91;5093655;28;19996;-73
2022/01/25 01:08:34;;;;;;;;;;;;;;;-1.10;78.02;97903.84;5058749;28;19953;-75
2022/01/25 01:11:03;;;;;;;;;;;;;;;-1.09;77.99;97906.34;5093367;28;19997;-73
2022/01/25 01:46:04;;;;;;;;;;;;;;;-1.35;78.46;97917.63;5097180;28;19952;-74
2022/01/25 01:48:38;;;;;;;;;;;;;;;-1.34;78.45;97911.56;5096828;28;20405;-74
2022/01/25 01:51:13;;;;;;;;;;;;;;;-1.34;78.63;97916.72;5097247;28;19959;-74
2022/01/25 01:53:39;;;;;;;;;;;;;;;-1.34;78.45;97909.81;5096929;28;20326;-73
2022/01/25 01:56:05;;;;;;;;;;;;;;;-1.31;78.48;97919.06;5097032;28;19949;-73
2022/01/25 01:58:31;;;;;;;;;;;;;;;-1.31;78.51;97919.06;5096706;28;19988;-73
2022/01/25 02:00:56;;;;;;;;;;;;;;;-1.29;78.94;97918.00;5096778;28;19991;-73
2022/01/25 02:03:22;;;;;;;;;;;;;;;-1.29;78.85;97915.44;5078659;28;19956;-74
2022/01/25 02:05:48;;;;;;;;;;;;;;;-1.29;78.70;97905.16;5096803;28;20017;-74
2022/01/25 02:08:15;;;;;;;;;;;;;;;-1.28;78.40;97908.53;5096579;28;19951;-74
2022/01/25 02:10:41;;;;;;;;;;;;;;;-1.30;78.22;97918.97;5096582;28;19964;-73
2022/01/25 02:13:07;;;;;;;;;;;;;;;-1.32;78.05;97909.72;5061875;28;19956;-74
2022/01/25 02:15:35;;;;;;;;;;;;;;;-1.34;77.80;97917.53;5078151;28;19979;-73
2022/01/25 02:23:19;;;;;;;;;;;;;;;-1.45;77.36;97913.13;5096454;28;20319;-74
2022/01/25 02:25:46;;;;;;;;;;;;;;;-1.46;77.63;97911.47;5096171;28;19957;-74
2022/01/25 02:28:12;;;;;;;;;;;;;;;-1.47;77.70;97912.41;5096744;28;20307;-73
2022/01/25 02:30:38;;;;;;;;;;;;;;;-1.46;78.37;97914.03;5096032;28;19977;-73
2022/01/25 02:33:04;;;;;;;;;;;;;;;-1.49;77.72;97909.13;5078220;28;19961;-74
2022/01/25 02:35:30;;;;;;;;;;;;;;;-1.51;77.53;97915.28;5096145;28;19962;-73
2022/01/25 02:37:56;;;;;;;;;;;;;;;-1.55;77.22;97906.97;5096080;28;20419;-74
2022/01/25 02:40:22;;;;;;;;;;;;;;;-1.58;77.05;97914.88;5096300;28;20402;-73
2022/01/25 02:42:49;;;;;;;;;;;;;;;-1.59;77.13;97908.09;5095838;28;20008;-74
2022/01/25 02:45:17;;;;;;;;;;;;;;;-1.60;76.94;97908.19;5096279;28;19955;-73
2022/01/25 02:50:27;;;;;;;;;;;;;;;-1.64;77.50;97907.59;5095878;28;20440;-74
2022/01/25 02:52:53;;;;;;;;;;;;;;;-1.67;77.51;97903.47;5095969;28;19969;-74
2022/01/25 02:55:19;;;;;;;;;;;;;;;-1.68;77.04;97908.72;5095504;28;19984;-73
2022/01/25 02:57:45;;;;;;;;;;;;;;;-1.69;76.89;97907.09;5095622;28;19982;-74
2022/01/25 03:00:12;;;;;;;;;;;;;;;-1.72;77.09;97894.41;5095615;28;19955;-73
2022/01/25 03:02:37;;;;;;;;;;;;;;;-1.74;76.58;97901.41;5095845;28;19960;-73
2022/01/25 03:05:04;;;;;;;;;;;;;;;-1.75;76.48;97892.88;5095586;28;20364;-73
2022/01/25 03:07:30;;;;;;;;;;;;;;;-1.76;76.64;97893.81;5095558;28;20317;-74
2022/01/25 03:09:58;;;;;;;;;;;;;;;-1.75;76.76;97895.47;5095377;28;19959;-73
2022/01/25 03:12:35;;;;;;;;;;;;;;;-1.75;77.03;97890.31;5077537;28;19965;-74
2022/01/25 03:17:54;;;;;;;;;;;;;;;-1.77;77.29;97894.75;5095382;28;20029;-73
2022/01/25 03:20:33;;;;;;;;;;;;;;;-1.80;76.67;97891.56;5095596;28;20318;-74
2022/01/25 03:23:05;;;;;;;;;;;;;;;-1.82;76.55;97890.84;5095208;28;20051;-73
2022/01/25 03:25:32;;;;;;;;;;;;;;;-1.87;76.49;97884.28;5095094;28;19958;-73
2022/01/25 03:27:58;;;;;;;;;;;;;;;-1.90;76.66;97884.47;5094633;28;19960;-74
2022/01/25 03:30:24;;;;;;;;;;;;;;;-1.91;76.36;97890.56;5077209;28;19970;-74
2022/01/25 03:32:50;;;;;;;;;;;;;;;-1.94;76.42;97885.59;5095174;28;20329;-74
2022/01/25 03:35:16;;;;;;;;;;;;;;;-1.94;76.45;97882.22;5094037;28;19949;-73
2022/01/25 03:37:42;;;;;;;;;;;;;;;-1.96;76.56;97882.31;5095026;28;19951;-74
2022/01/25 03:40:08;;;;;;;;;;;;;;;-1.97;76.43;97882.44;5093925;28;19973;-74
2022/01/25 03:42:37;;;;;;;;;;;;;;;-1.99;76.27;97886.84;5094828;28;19962;-75
2022/01/25 03:45:04;;;;;;;;;;;;;;;-2.04;76.52;97892.28;5095004;28;20430;-74
2022/01/25 03:47:43;;;;;;;;;;;;;;;-2.06;76.08;97884.69;5095104;28;19956;-75
2022/01/25 03:50:09;;;;;;;;;;;;;;;-2.06;76.68;97889.00;5094714;28;20307;-74
2022/01/25 03:52:37;;;;;;;;;;;;;;;-2.05;76.71;97895.78;5095059;28;19948;-75
2022/01/25 03:55:04;;;;;;;;;;;;;;;-2.06;76.60;97900.13;5094749;28;19959;-74
2022/01/25 03:57:30;;;;;;;;;;;;;;;-2.07;76.70;97893.31;5076420;28;20314;-74
2022/01/25 04:00:00;;;;;;;;;;;;;;;-2.08;76.94;97890.84;5094493;28;19978;-74
2022/01/25 04:02:28;;;;;;;;;;;;;;;-2.07;77.17;97895.91;5095030;28;20013;-74
2022/01/25 04:04:56;;;;;;;;;;;;;;;-2.08;77.01;97888.28;5094507;28;19958;-74
2022/01/25 04:07:30;;;;;;;;;;;;;;;-2.08;76.99;97891.69;5093079;28;19952;-74
2022/01/25 04:09:56;;;;;;;;;;;;;;;-2.08;77.07;97889.13;5094488;28;19956;-80
2022/01/25 04:12:22;;;;;;;;;;;;;;;-2.08;76.94;97880.56;5094305;28;19993;-74
2022/01/25 04:14:48;;;;;;;;;;;;;;;-2.10;76.96;97883.25;5094279;28;19962;-75
2022/01/25 04:17:19;;;;;;;;;;;;;;;-2.12;76.92;97879.13;5076513;28;19957;-75
2022/01/25 04:19:57;;;;;;;;;;;;;;;-2.14;76.93;97873.25;5094365;28;19984;-75
2022/01/25 04:25:14;;;;;;;;;;;;;;;-2.13;77.52;97872.34;5094611;28;19953;-75
2022/01/25 04:27:41;;;;;;;;;;;;;;;-2.13;77.76;97872.34;5093967;28;20326;-75
2022/01/25 04:30:07;;;;;;;;;;;;;;;-2.13;77.70;97857.75;5093991;28;19967;-74
2022/01/25 04:32:41;;;;;;;;;;;;;;;-2.12;77.34;97871.41;5093848;28;19974;-74
2022/01/25 04:35:13;;;;;;;;;;;;;;;-2.13;77.60;97865.47;5094037;28;19968;-75
2022/01/25 04:51:58;;;;;;;;;;;;;;;-2.13;77.33;97868.03;5018183;28;19960;-75
2022/01/25 05:02:28;;;;;;;;;;;;;;;-2.15;77.50;97845.94;5094053;28;19954;-73
2022/01/25 05:05:01;;;;;;;;;;;;;;;-2.09;87.97;97843.75;5093621;28;19954;-74
2022/01/25 05:07:38;;;;;;;;;;;;;;;-1.08;100.00;97846.16;5094110;28;20345;-74
2022/01/25 05:10:07;;;;;;;;;;;;;;;0.08;100.00;97832.47;5082237;28;19958;-74
2022/01/25 05:12:44;;;;;;;;;;;;;;;0.75;100.00;97834.16;5093625;28;19979;-74
2022/01/25 05:18:07;;;;;;;;;;;;;;;0.47;79.40;97830.34;5093745;28;19962;-74
2022/01/25 05:23:17;;;;;;;;;;;;;;;-0.22;76.93;97841.63;5097997;28;19959;-74
2022/01/25 05:25:43;;;;;;;;;;;;;;;-0.48;76.72;97846.97;5097581;28;20000;-74
2022/01/25 05:28:09;;;;;;;;;;;;;;;-0.73;76.61;97845.38;5097553;28;20437;-75
2022/01/25 05:30:35;;;;;;;;;;;;;;;-0.91;76.95;97855.25;5097536;28;20047;-74
2022/01/25 05:33:00;;;;;;;;;;;;;;;-1.10;77.24;97853.19;5097455;28;20410;-74
2022/01/25 05:35:26;;;;;;;;;;;;;;;-1.23;77.48;97863.53;5097207;28;19960;-74
2022/01/25 05:37:52;;;;;;;;;;;;;;;-1.34;77.68;97853.19;5097700;28;20327;-75
2022/01/25 05:40:28;;;;;;;;;;;;;;;-1.46;77.95;97854.84;5097039;28;20013;-74
2022/01/25 05:45:56;;;;;;;;;;;;;;;-1.60;77.98;97860.13;5097358;28;19972;-74
2022/01/25 05:48:28;;;;;;;;;;;;;;;-1.67;78.24;97864.09;5088610;28;19970;-75
2022/01/25 05:50:55;;;;;;;;;;;;;;;-1.72;78.34;97858.41;5079035;28;19955;-74
2022/01/25 05:53:21;;;;;;;;;;;;;;;-1.78;78.20;97854.53;5097032;28;19954;-74
2022/01/25 05:55:47;;;;;;;;;;;;;;;-1.82;78.07;97863.38;5096875;28;20378;-74
2022/01/25 05:58:13;;;;;;;;;;;;;;;-1.88;78.15;97859.47;5096541;28;19976;-74
2022/01/25 06:00:39;;;;;;;;;;;;;;;-1.91;78.30;97854.56;5078758;28;19957;-74
2022/01/25 06:03:06;;;;;;;;;;;;;;;-1.95;78.20;97849.69;5096874;28;20362;-75
2022/01/25 06:05:32;;;;;;;;;;;;;;;-1.99;78.22;97861.97;5097035;28;19954;-73
2022/01/25 06:07:58;;;;;;;;;;;;;;;-2.03;78.27;97862.28;5096580;28;19954;-74
2022/01/25 06:10:24;;;;;;;;;;;;;;;-2.06;78.20;97859.00;5096550;28;19998;-74
2022/01/25 06:12:50;;;;;;;;;;;;;;;-2.09;78.09;97859.19;5096866;28;20413;-74
2022/01/25 06:15:16;;;;;;;;;;;;;;;-2.11;78.29;97862.78;5096420;28;19947;-74
2022/01/25 06:17:42;;;;;;;;;;;;;;;-2.13;78.38;97860.31;5082526;28;19957;-74
2022/01/25 06:20:08;;;;;;;;;;;;;;;-2.15;78.20;97867.31;5096550;28;19975;-73
2022/01/25 06:22:34;;;;;;;;;;;;;;;-2.17;78.58;97866.59;5096182;28;19956;-73
2022/01/25 06:25:00;;;;;;;;;;;;;;;-2.20;78.53;97869.38;5096397;28;19956;-73
2022/01/25 06:27:26;;;;;;;;;;;;;;;-2.21;78.31;97872.03;5096418;28;19963;-73
2022/01/25 06:29:52;;;;;;;;;;;;;;;-2.22;78.37;97871.22;5095723;28;19961;-73
2022/01/25 06:32:19;;;;;;;;;;;;;;;-2.22;78.19;97870.41;5096263;28;20342;-73
2022/01/25 06:34:46;;;;;;;;;;;;;;;-2.23;78.07;97863.59;5096133;28;19965;-74
2022/01/25 06:37:13;;;;;;;;;;;;;;;-2.27;78.27;97865.56;5096372;28;19954;-74
2022/01/25 06:39:39;;;;;;;;;;;;;;;-2.29;78.08;97870.81;5085366;28;19965;-74
2022/01/25 06:42:06;;;;;;;;;;;;;;;-2.32;77.87;97871.00;5096035;28;20047;-74
2022/01/25 06:44:35;;;;;;;;;;;;;;;-2.35;77.90;97878.94;5096011;28;19958;-73
2022/01/25 06:47:01;;;;;;;;;;;;;;;-2.35;78.11;97876.34;5095854;28;19957;-74
2022/01/25 06:49:27;;;;;;;;;;;;;;;-2.34;78.90;97882.31;5095989;28;19948;-73
2022/01/25 06:51:52;;;;;;;;;;;;;;;-2.34;78.87;97895.16;5095946;28;19959;-75
2022/01/25 06:54:18;;;;;;;;;;;;;;;-2.35;78.66;97893.50;5077672;28;19960;-74
2022/01/25 06:56:44;;;;;;;;;;;;;;;-2.36;78.36;97894.44;5095705;28;19998;-74
2022/01/25 06:59:10;;;;;;;;;;;;;;;-2.35;82.18;97898.63;5095607;28;19998;-73
2022/01/25 07:01:36;;;;;;;;;;;;;;;-1.99;92.74;97902.28;5095607;28;20326;-74
2022/01/25 07:04:02;;;;;;;;;;;;;;;-1.91;83.24;97894.84;5095678;28;20036;-74
2022/01/25 07:06:28;;;;;;;;;;;;;;;-1.92;80.84;97898.38;5095557;28;19955;-73
2022/01/25 07:08:54;;;;;;;;;;;;;;;-1.98;79.62;97899.59;5095395;28;19981;-74
2022/01/25 07:11:20;;;;;;;;;;;;;;;-2.03;78.46;97905.97;5077611;28;19960;-74
2022/01/25 07:13:47;;;;;;;;;;;;;;;-2.10;77.73;97908.13;5095652;28;19958;-74
2022/01/25 07:16:13;;;;;;;;;;;;;;;-2.16;77.68;97916.22;5095308;28;19949;-74
2022/01/25 07:18:39;;;;;;;;;;;;;;;-2.19;83.52;97919.84;5095325;28;19964;-73
2022/01/25 07:21:05;;;;;;;;;;;;;;;-1.34;100.00;97922.66;5095509;28;20050;-74
2022/01/25 07:23:31;;;;;;;;;;;;;;;-1.02;98.21;97911.88;5095350;28;19960;-74
2022/01/25 07:25:57;;;;;;;;;;;;;;;-1.07;83.10;97919.06;5095047;28;19959;-74
2022/01/25 07:28:23;;;;;;;;;;;;;;;-1.17;79.08;97924.06;5095393;28;19956;-74
2022/01/25 07:30:49;;;;;;;;;;;;;;;-1.33;77.38;97924.31;5095349;28;20045;-74
2022/01/25 07:33:15;;;;;;;;;;;;;;;-1.49;77.46;97921.97;5094947;28;19992;-74
2022/01/25 07:35:41;;;;;;;;;;;;;;;-1.58;77.54;97922.59;5095151;28;19955;-74
2022/01/25 07:38:08;;;;;;;;;;;;;;;-1.65;77.92;97918.81;5095030;28;19965;-73
2022/01/25 07:40:36;;;;;;;;;;;;;;;-1.66;78.19;97918.00;5076613;28;19964;-74
2022/01/25 07:43:02;;;;;;;;;;;;;;;-1.31;86.62;97924.19;5094049;28;19949;-74
2022/01/25 07:45:34;;;;;;;;;;;;;;;-1.08;79.79;97920.84;5095290;28;20322;-74
2022/01/25 07:48:04;;;;;;;;;;;;;;;-0.86;77.86;97922.72;5076746;28;19964;-74
2022/01/25 07:50:30;;;;;;;;;;;;;;;-0.58;76.97;97914.75;5093407;28;19954;-74
2022/01/25 07:52:56;;;;;;;;;;;;;;;-0.29;76.09;97921.19;5094736;28;19968;-74
2022/01/25 07:55:22;;;;;;;;;;;;;;;-0.02;74.95;97920.88;5094465;28;20470;-74
2022/01/25 07:57:48;;;;;;;;;;;;;;;0.27;82.77;97924.78;5094390;28;19981;-73
2022/01/25 08:00:14;;;;;;;;;;;;;;;0.45;74.38;97915.63;5093733;28;20453;-74
2022/01/25 08:02:41;;;;;;;;;;;;;;;0.59;72.58;97922.34;5076419;28;19961;-74
2022/01/25 08:05:08;;;;;;;;;;;;;;;0.55;72.04;97921.75;5094466;28;20323;-74
2022/01/25 08:07:34;;;;;;;;;;;;;;;0.52;72.25;97927.13;5076475;28;20324;-75
2022/01/25 08:09:59;;;;;;;;;;;;;;;0.55;72.46;97928.66;5094199;28;19962;-74
2022/01/25 08:12:25;;;;;;;;;;;;;;;0.60;72.32;97922.19;5094306;28;19965;-75
2022/01/25 08:14:53;;;;;;;;;;;;;;;0.73;71.91;97927.22;5094345;28;20300;-73
2022/01/25 08:17:19;;;;;;;;;;;;;;;0.88;71.82;97922.63;5094314;28;20428;-74
2022/01/25 08:19:45;;;;;;;;;;;;;;;1.02;71.75;97927.53;5094331;28;19979;-74
2022/01/25 08:22:11;;;;;;;;;;;;;;;1.12;71.15;97927.63;5094364;28;19985;-75
2022/01/25 08:24:37;;;;;;;;;;;;;;;1.27;71.33;97925.59;5083127;28;19958;-74
2022/01/25 08:27:03;;;;;;;;;;;;;;;1.49;71.25;97921.28;5094065;28;19959;-74
2022/01/25 08:29:29;;;;;;;;;;;;;;;1.69;70.77;97922.25;5093987;28;20442;-74
2022/01/25 08:31:55;;;;;;;;;;;;;;;1.85;70.39;97924.38;5094512;28;19963;-74
2022/01/25 08:34:21;;;;;;;;;;;;;;;2.06;69.79;97919.19;5093854;28;19969;-74
2022/01/25 08:36:47;;;;;;;;;;;;;;;2.20;69.23;97918.88;5094077;28;19970;-74
2022/01/25 08:39:13;;;;;;;;;;;;;;;2.35;68.91;97922.78;5093864;28;19975;-74
2022/01/25 08:41:40;;;;;;;;;;;;;;;2.51;69.17;97917.09;5093754;28;19961;-74
2022/01/25 08:44:06;;;;;;;;;;;;;;;2.67;68.17;97920.97;5093800;28;19958;-75
2022/01/25 08:46:33;;;;;;;;;;;;;;;2.75;68.13;97905.59;5094022;28;19967;-74
2022/01/25 08:48:59;;;;;;;;;;;;;;;2.77;67.86;97914.88;5094027;28;19955;-74
2022/01/25 08:51:25;;;;;;;;;;;;;;;2.71;66.57;97907.66;5093762;28;19957;-74
2022/01/25 08:53:51;;;;;;;;;;;;;;;2.62;67.90;97911.84;5093604;28;20002;-74
2022/01/25 08:56:17;;;;;;;;;;;;;;;2.61;67.74;97910.19;5093807;28;19956;-75
2022/01/25 08:58:43;;;;;;;;;;;;;;;2.64;67.78;97915.09;5093603;28;19988;-74
2022/01/25 09:01:08;;;;;;;;;;;;;;;2.79;68.11;97910.41;5093683;28;20089;-74
2022/01/25 09:03:36;;;;;;;;;;;;;;;2.93;67.55;97922.13;5093700;28;19961;-74
2022/01/25 09:06:03;;;;;;;;;;;;;;;2.82;65.71;97904.94;5093652;28;20030;-74
2022/01/25 09:08:29;;;;;;;;;;;;;;;2.73;67.49;97916.09;5093677;28;20313;-74
2022/01/25 09:11:00;;;;;;;;;;;;;;;2.78;67.15;97911.34;5093676;28;19957;-74
2022/01/25 09:13:26;;;;;;;;;;;;;;;2.74;67.07;97911.72;5076847;28;19951;-74
2022/01/25 09:15:53;;;;;;;;;;;;;;;2.73;66.92;97913.50;5093488;28;20412;-75
2022/01/25 09:18:19;;;;;;;;;;;;;;;2.64;66.45;97915.09;5093583;28;19954;-75
2022/01/25 09:20:45;;;;;;;;;;;;;;;2.57;66.18;97914.00;5093400;28;19974;-74
2022/01/25 09:23:11;;;;;;;;;;;;;;;2.66;71.30;97914.97;5093693;28;19954;-74
2022/01/25 09:25:37;;;;;;;;;;;;;;;2.66;68.08;97914.97;5093608;28;19956;-74
2022/01/25 09:28:03;;;;;;;;;;;;;;;2.58;68.03;97912.22;5093433;28;19995;-74
2022/01/25 09:30:30;;;;;;;;;;;;;;;2.46;68.18;97908.06;5059124;28;19962;-74
2022/01/25 09:32:57;;;;;;;;;;;;;;;2.43;68.63;97915.16;5093380;28;19956;-74
2022/01/25 09:35:23;;;;;;;;;;;;;;;2.36;68.46;97915.81;5075684;28;20403;-74
2022/01/25 09:37:50;;;;;;;;;;;;;;;2.50;69.11;97909.47;5093378;28;19953;-75
2022/01/25 09:40:16;;;;;;;;;;;;;;;2.73;68.55;97910.91;5058592;28;19974;-75
2022/01/25 09:42:42;;;;;;;;;;;;;;;2.87;66.33;97909.72;5093482;28;19951;-74
2022/01/25 09:45:09;;;;;;;;;;;;;;;2.90;68.04;97916.41;5075638;28;19968;-74
2022/01/25 09:47:36;;;;;;;;;;;;;;;2.82;67.25;97912.72;5075456;28;19967;-74
2022/01/25 09:50:03;;;;;;;;;;;;;;;2.90;67.24;97911.22;5093471;28;20396;-75
2022/01/25 09:52:31;;;;;;;;;;;;;;;2.91;67.77;97912.88;5093563;28;20330;-74
2022/01/25 09:55:00;;;;;;;;;;;;;;;2.92;67.50;97906.72;5093133;28;19957;-75
2022/01/25 09:57:26;;;;;;;;;;;;;;;2.95;68.83;97909.88;5092935;28;20359;-74
2022/01/25 09:59:53;;;;;;;;;;;;;;;2.99;67.93;97906.06;5093348;28;19978;-75
2022/01/25 10:03:20;;;;;;;;;;;;;;;3.03;67.36;97904.84;5078997;28;20314;-74
2022/01/25 10:05:48;;;;;;;;;;;;;;;2.87;68.49;97904.53;4999909;28;19967;-75
2022/01/25 10:08:15;;;;;;;;;;;;;;;2.82;67.01;97907.53;5014838;28;20423;-75
2022/01/25 10:10:43;;;;;;;;;;;;;;;2.73;67.72;97905.75;5049866;28;19965;-75
2022/01/25 10:13:11;;;;;;;;;;;;;;;2.66;68.14;97904.63;5078617;28;19950;-75
2022/01/25 10:15:42;;;;;;;;;;;;;;;2.68;67.90;97900.13;5096687;28;19943;-75
2022/01/25 10:18:09;;;;;;;;;;;;;;;2.82;68.25;97897.16;5096716;28;19962;-75
2022/01/25 10:20:37;;;;;;;;;;;;;;;2.95;69.03;97893.50;5078346;28;19968;-74
2022/01/25 10:23:25;;;;;;;;;;;;;;;3.10;68.71;97886.16;5096415;28;20322;-75
2022/01/25 10:25:51;;;;;;;;;;;;;;;3.22;67.83;97882.50;5096670;28;19954;-75
2022/01/25 10:28:23;;;;;;;;;;;;;;;3.28;68.09;97884.53;5096470;28;19967;-75
2022/01/25 10:30:49;;;;;;;;;;;;;;;3.30;66.83;97876.59;5062497;28;19962;-75
2022/01/25 10:33:17;;;;;;;;;;;;;;;3.32;67.85;97883.31;5096325;28;19949;-75
2022/01/25 10:35:44;;;;;;;;;;;;;;;3.35;66.90;97875.25;5095512;28;19975;-75
2022/01/25 10:38:17;;;;;;;;;;;;;;;3.43;67.31;97870.19;5061359;28;19960;-75
2022/01/25 10:40:43;;;;;;;;;;;;;;;3.45;66.12;97870.88;5096087;28;19997;-75
2022/01/25 10:43:12;;;;;;;;;;;;;;;3.51;66.49;97872.13;5078018;28;19953;-75
2022/01/25 10:45:38;;;;;;;;;;;;;;;3.56;67.47;97872.50;5096060;28;19957;-75
2022/01/25 10:48:04;;;;;;;;;;;;;;;3.66;67.01;97873.31;5096083;28;19964;-75
2022/01/25 10:50:34;;;;;;;;;;;;;;;3.77;66.61;97869.75;5094857;28;19948;-75
2022/01/25 10:53:09;;;;;;;;;;;;;;;3.91;67.06;97865.91;5095955;28;19951;-76
2022/01/25 10:55:39;;;;;;;;;;;;;;;4.01;66.33;97868.44;5095703;28;19957;-75
2022/01/25 10:58:05;;;;;;;;;;;;;;;4.03;65.66;97867.38;5096086;28;19978;-75
2022/01/25 11:00:33;;;;;;;;;;;;;;;4.18;67.26;97870.34;5077695;28;19967;-75
2022/01/25 11:02:59;;;;;;;;;;;;;;;4.36;66.83;97877.38;5095868;28;19962;-75
2022/01/25 11:05:25;;;;;;;;;;;;;;;4.41;66.43;97872.53;5095701;28;19944;-75
2022/01/25 11:07:51;;;;;;;;;;;;;;;4.31;64.87;97864.81;5077116;28;19967;-76
2022/01/25 11:10:21;;;;;;;;;;;;;;;4.25;64.33;97866.19;5077494;28;19949;-75
2022/01/25 11:13:01;;;;;;;;;;;;;;;4.19;65.94;97873.75;5094189;28;19953;-75
2022/01/25 11:15:27;;;;;;;;;;;;;;;4.23;64.70;97869.91;5075762;28;19945;-75
2022/01/25 11:17:53;;;;;;;;;;;;;;;4.31;63.97;97858.81;5095349;28;20408;-75
2022/01/25 11:20:19;;;;;;;;;;;;;;;4.31;65.16;97864.00;5095462;28;19970;-75
2022/01/25 11:22:45;;;;;;;;;;;;;;;4.42;64.74;97861.22;5077165;28;20018;-75
2022/01/25 11:25:14;;;;;;;;;;;;;;;4.59;65.74;97870.00;5095373;28;20326;-75
2022/01/25 11:27:41;;;;;;;;;;;;;;;4.79;65.86;97861.16;5095525;28;19957;-75
2022/01/25 11:30:12;;;;;;;;;;;;;;;4.81;64.32;97853.22;5095146;28;19957;-75
2022/01/25 11:32:42;;;;;;;;;;;;;;;4.83;62.66;97846.06;5095138;28;19959;-75
2022/01/25 11:35:10;;;;;;;;;;;;;;;4.94;63.04;97840.66;5095054;28;20396;-75
2022/01/25 11:37:36;;;;;;;;;;;;;;;5.14;64.19;97854.31;5095105;28;19949;-75
2022/01/25 11:40:03;;;;;;;;;;;;;;;5.14;62.45;97830.94;5094865;28;19960;-75
2022/01/25 11:42:36;;;;;;;;;;;;;;;5.15;62.44;97835.19;5095197;28;19987;-75
2022/01/25 11:45:02;;;;;;;;;;;;;;;5.24;61.78;97825.66;5094920;28;19961;-75
2022/01/25 11:47:33;;;;;;;;;;;;;;;5.24;63.33;97833.47;5094979;28;19959;-75
2022/01/25 11:50:00;;;;;;;;;;;;;;;5.32;62.16;97823.13;5076489;28;20315;-75
2022/01/25 11:52:28;;;;;;;;;;;;;;;5.47;61.96;97821.59;5094821;28;19947;-75
2022/01/25 11:55:13;;;;;;;;;;;;;;;5.65;62.19;97818.97;5094478;28;19958;-75
2022/01/25 11:57:48;;;;;;;;;;;;;;;5.74;59.86;97804.22;5094418;28;19981;-75
2022/01/25 12:00:15;;;;;;;;;;;;;;;5.83;60.30;97800.69;5094565;28;19970;-76
2022/01/25 12:02:42;;;;;;;;;;;;;;;5.82;60.87;97799.06;5094173;28;19956;-75
2022/01/25 12:05:10;;;;;;;;;;;;;;;5.88;60.72;97800.25;5094812;28;19952;-75
2022/01/25 12:07:41;;;;;;;;;;;;;;;5.98;60.66;97802.75;5094339;28;19983;-76
2022/01/25 12:10:26;;;;;;;;;;;;;;;5.83;60.81;97805.09;5094892;28;19946;-75
2022/01/25 12:13:10;;;;;;;;;;;;;;;5.73;62.39;97817.38;5076182;28;20435;-75
2022/01/25 12:15:36;;;;;;;;;;;;;;;5.66;61.43;97810.19;5094158;28;20294;-75
2022/01/25 12:18:02;;;;;;;;;;;;;;;5.65;61.77;97805.16;5075593;28;19955;-75
2022/01/25 12:20:29;;;;;;;;;;;;;;;5.67;62.93;97811.84;5094033;28;20395;-75
2022/01/25 12:23:05;;;;;;;;;;;;;;;5.78;62.05;97804.75;5094503;28;19970;-77
2022/01/25 12:25:47;;;;;;;;;;;;;;;5.77;60.20;97782.28;5094439;28;20405;-75
2022/01/25 12:28:31;;;;;;;;;;;;;;;5.82;61.67;97793.88;5094185;28;19964;-75
2022/01/25 12:31:01;;;;;;;;;;;;;;;5.95;62.99;97814.31;5080174;28;19948;-75
2022/01/25 12:33:28;;;;;;;;;;;;;;;5.95;61.68;97797.88;5094069;28;19946;-75
2022/01/25 12:35:59;;;;;;;;;;;;;;;5.98;61.34;97790.53;5094155;28;20406;-75
2022/01/25 12:38:38;;;;;;;;;;;;;;;6.05;61.08;97788.16;5093964;28;20399;-75
2022/01/25 12:41:05;;;;;;;;;;;;;;;6.03;61.26;97795.31;5094211;28;19973;-75
2022/01/25 12:43:34;;;;;;;;;;;;;;;6.02;60.52;97775.44;5093742;28;19953;-76
2022/01/25 12:46:03;;;;;;;;;;;;;;;6.01;61.27;97792.03;5058961;28;20425;-75
2022/01/25 12:48:34;;;;;;;;;;;;;;;6.00;60.89;97783.41;5094059;28;20326;-75
2022/01/25 12:51:06;;;;;;;;;;;;;;;6.00;60.54;97777.38;5093768;28;19954;-75
2022/01/25 12:53:33;;;;;;;;;;;;;;;6.04;61.59;97787.31;5093970;28;19956;-75
2022/01/25 12:56:07;;;;;;;;;;;;;;;6.12;60.87;97781.34;5076139;28;20324;-77
2022/01/25 12:58:33;;;;;;;;;;;;;;;6.17;61.13;97783.47;5093759;28;19975;-75
2022/01/25 13:01:01;;;;;;;;;;;;;;;6.19;60.78;97790.16;5093814;28;19982;-76
2022/01/25 13:03:33;;;;;;;;;;;;;;;6.19;60.76;97789.34;5093969;28;19950;-75
2022/01/25 13:05:59;;;;;;;;;;;;;;;6.20;60.53;97783.97;5075582;28;19958;-75
2022/01/25 13:08:26;;;;;;;;;;;;;;;6.23;60.14;97775.84;5094029;28;20343;-75
2022/01/25 13:10:56;;;;;;;;;;;;;;;6.23;60.24;97775.84;5093853;28;19955;-76
2022/01/25 13:13:29;;;;;;;;;;;;;;;6.23;60.79;97780.25;5081553;28;19946;-75
2022/01/25 13:15:58;;;;;;;;;;;;;;;6.20;60.37;97781.38;5093547;28;20037;-76
2022/01/25 13:18:26;;;;;;;;;;;;;;;6.21;61.49;97790.81;5076224;28;19961;-75
2022/01/25 13:21:00;;;;;;;;;;;;;;;6.24;60.59;97780.09;5093580;28;20339;-76
2022/01/25 13:23:26;;;;;;;;;;;;;;;6.33;60.05;97769.69;5094063;28;19967;-75
2022/01/25 13:26:25;;;;;;;;;;;;;;;6.37;62.48;97805.69;5093411;28;20000;-75
2022/01/25 13:31:16;;;;;;;;;;;;;;;6.35;60.14;97775.56;5093759;28;19967;-75
2022/01/25 13:33:42;;;;;;;;;;;;;;;6.34;60.57;97768.72;5093614;28;19949;-75
2022/01/25 13:36:13;;;;;;;;;;;;;;;6.32;60.53;97775.88;5075298;28;20421;-76
2022/01/25 13:38:40;;;;;;;;;;;;;;;6.33;61.89;97787.94;5075462;28;19962;-75
2022/01/25 13:45:44;;;;;;;;;;;;;;;6.32;60.17;97768.88;5097315;28;19949;-76
2022/01/25 13:46:23;;;;;;;;;;;;;;;6.33;61.01;97778.31;5097427;28;19961;-75
2022/01/25 13:48:50;;;;;;;;;;;;;;;6.39;61.00;97779.50;5097129;28;20321;-76
2022/01/25 13:51:18;;;;;;;;;;;;;;;6.44;60.84;97780.63;5096915;28;19964;-76
2022/01/25 13:53:49;;;;;;;;;;;;;;;6.49;60.93;97783.59;5078411;28;19951;-76
2022/01/25 13:56:15;;;;;;;;;;;;;;;6.52;60.52;97772.03;5097531;28;20414;-76
2022/01/25 13:58:43;;;;;;;;;;;;;;;6.52;60.84;97772.03;5096978;28;19995;-75
2022/01/25 14:01:10;;;;;;;;;;;;;;;6.47;61.23;97771.69;5096782;28;19971;-76
2022/01/25 14:03:38;;;;;;;;;;;;;;;6.40;60.94;97771.50;5097010;28;19959;-76
2022/01/25 14:06:24;;;;;;;;;;;;;;;6.34;60.99;97779.13;5078613;28;19950;-76
2022/01/25 14:08:51;;;;;;;;;;;;;;;6.30;61.02;97773.44;5095668;28;19965;-76
2022/01/25 14:11:24;;;;;;;;;;;;;;;6.28;61.63;97780.59;5078904;28;19952;-75
2022/01/25 14:24:36;;;;;;;;;;;;;;;6.13;62.71;97785.56;5095283;28;19975;-75
2022/01/25 14:27:18;;;;;;;;;;;;;;;6.06;62.32;97784.56;5096144;28;19962;-75
2022/01/25 14:29:44;;;;;;;;;;;;;;;6.00;62.63;97782.59;5096423;28;19961;-75
2022/01/25 14:32:10;;;;;;;;;;;;;;;5.98;63.00;97787.13;5096287;28;20302;-75
2022/01/25 14:34:36;;;;;;;;;;;;;;;5.98;62.78;97784.53;5096686;28;19999;-75
2022/01/25 14:37:10;;;;;;;;;;;;;;;6.05;67.91;97783.75;5078202;28;19961;-76
2022/01/25 14:39:40;;;;;;;;;;;;;;;6.13;63.94;97771.72;5078351;28;20311;-78
2022/01/25 14:42:11;;;;;;;;;;;;;;;6.10;63.50;97778.06;5095890;28;20000;-76
2022/01/25 14:44:41;;;;;;;;;;;;;;;6.03;64.01;97779.69;5096687;28;20331;-76
2022/01/25 14:47:12;;;;;;;;;;;;;;;6.00;63.88;97787.78;5096147;28;19961;-75
2022/01/25 14:49:45;;;;;;;;;;;;;;;5.96;63.90;97779.47;5096151;28;19958;-75
2022/01/25 14:52:11;;;;;;;;;;;;;;;5.90;64.12;97787.91;5095931;28;19944;-76
2022/01/25 14:54:41;;;;;;;;;;;;;;;5.79;64.32;97783.75;5095903;28;20324;-76
2022/01/25 14:57:11;;;;;;;;;;;;;;;5.71;64.67;97791.50;5095499;28;20350;-76
2022/01/25 14:59:41;;;;;;;;;;;;;;;5.67;65.38;97793.63;5061398;28;19950;-76
2022/01/25 15:02:09;;;;;;;;;;;;;;;5.65;65.34;97792.16;5095745;28;19969;-77
2022/01/25 15:04:37;;;;;;;;;;;;;;;5.61;65.47;97791.63;5095987;28;19959;-77